createdAt,value
2022-10-17T00:01:14.982Z,13.20
2022-10-17T00:03:43.321Z,13.20
2022-10-17T00:06:14.273Z,13.10
2022-10-17T00:08:45.014Z,13.10
2022-10-17T00:11:18.045Z,13.00
2022-10-17T00:13:48.042Z,13.00
2022-10-17T00:16:19.315Z,13.00
2022-10-17T00:18:47.394Z,12.90
2022-10-17T00:21:19.938Z,12.90
2022-10-17T00:23:48.668Z,12.90
2022-10-17T00:26:17.968Z,12.90
2022-10-17T00:28:49.274Z,12.90
2022-10-17T00:31:20.150Z,12.90
2022-10-17T00:33:49.011Z,12.80
2022-10-17T00:36:20.111Z,12.80
2022-10-17T00:38:51.926Z,12.80
2022-10-17T00:41:24.331Z,12.70
2022-10-17T00:44:00.932Z,12.70
2022-10-17T00:46:31.702Z,12.70
2022-10-17T00:49:04.690Z,12.70
2022-10-17T00:51:38.198Z,12.70
2022-10-17T00:54:07.600Z,12.60
2022-10-17T00:56:35.790Z,12.60
2022-10-17T01:01:35.086Z,12.60
2022-10-17T01:04:03.206Z,12.60
2022-10-17T01:06:31.303Z,12.60
2022-10-17T01:08:59.670Z,12.60
2022-10-17T01:11:39.408Z,12.60
2022-10-17T01:14:17.351Z,12.60
2022-10-17T01:16:54.616Z,12.60
2022-10-17T01:19:52.060Z,12.60
2022-10-17T01:22:28.488Z,12.60
2022-10-17T01:25:18.315Z,12.50
2022-10-17T01:28:01.380Z,12.50
2022-10-17T01:30:59.960Z,12.50
2022-10-17T01:33:39.819Z,12.50
2022-10-17T01:36:13.729Z,12.40
2022-10-17T01:38:49.665Z,12.30
2022-10-17T01:41:31.169Z,12.30
2022-10-17T01:44:05.882Z,12.20
2022-10-17T01:46:38.607Z,12.20
2022-10-17T01:49:10.296Z,12.20
2022-10-17T01:51:44.007Z,12.20
2022-10-17T01:54:16.789Z,12.20
2022-10-17T01:56:47.493Z,12.10
2022-10-17T01:59:19.507Z,12.10
2022-10-17T02:01:52.905Z,12.10
2022-10-17T02:04:21.583Z,12.10
2022-10-17T02:06:49.823Z,12.10
2022-10-17T02:09:21.608Z,12.10
2022-10-17T02:12:09.930Z,12.00
2022-10-17T02:14:50.447Z,12.00
2022-10-17T02:17:34.364Z,12.00
2022-10-17T02:20:11.782Z,12.00
2022-10-17T02:22:49.765Z,12.00
2022-10-17T02:25:28.805Z,11.90
2022-10-17T02:28:07.595Z,11.90
2022-10-17T02:30:42.615Z,11.90
2022-10-17T02:33:17.502Z,11.80
2022-10-17T02:35:51.712Z,11.80
2022-10-17T02:38:22.291Z,11.80
2022-10-17T02:40:53.011Z,11.80
2022-10-17T02:43:22.348Z,11.70
2022-10-17T02:45:51.579Z,11.70
2022-10-17T02:48:29.198Z,11.70
2022-10-17T02:51:06.552Z,11.70
2022-10-17T02:53:44.396Z,11.70
2022-10-17T02:56:19.456Z,11.70
2022-10-17T02:58:52.833Z,11.60
2022-10-17T03:01:21.903Z,11.60
2022-10-17T03:03:51.459Z,11.60
2022-10-17T03:06:19.562Z,11.60
2022-10-17T03:08:47.789Z,11.60
2022-10-17T03:11:16.118Z,11.50
2022-10-17T03:13:44.225Z,11.50
2022-10-17T03:16:12.342Z,11.50
2022-10-17T03:18:40.575Z,11.50
2022-10-17T03:21:10.860Z,11.50
2022-10-17T03:23:39.264Z,11.50
2022-10-17T03:26:09.127Z,11.50
2022-10-17T03:28:37.692Z,11.40
2022-10-17T03:31:10.389Z,11.50
2022-10-17T03:33:40.054Z,11.40
2022-10-17T03:36:13.868Z,11.40
2022-10-17T03:38:42.712Z,11.50
2022-10-17T03:41:11.564Z,11.50
2022-10-17T03:43:40.838Z,11.50
2022-10-17T03:46:09.760Z,11.50
2022-10-17T03:48:38.733Z,11.40
2022-10-17T03:51:11.194Z,11.40
2022-10-17T03:53:45.309Z,11.40
2022-10-17T03:56:16.690Z,11.30
2022-10-17T03:58:47.030Z,11.30
2022-10-17T04:01:18.804Z,11.30
2022-10-17T04:03:52.135Z,11.30
2022-10-17T04:06:22.448Z,11.20
2022-10-17T04:08:51.271Z,11.20
2022-10-17T04:11:34.824Z,11.20
2022-10-17T04:14:03.955Z,11.10
2022-10-17T04:16:33.254Z,11.10
2022-10-17T04:19:04.518Z,11.10
2022-10-17T04:21:40.219Z,11.00
2022-10-17T04:24:12.616Z,11.00
2022-10-17T04:26:52.076Z,11.00
2022-10-17T04:29:22.192Z,11.00
2022-10-17T04:31:53.178Z,11.00
2022-10-17T04:34:29.498Z,11.00
2022-10-17T04:36:59.452Z,10.90
2022-10-17T04:39:28.617Z,10.90
2022-10-17T04:41:57.132Z,10.90
2022-10-17T04:44:25.251Z,10.90
2022-10-17T04:46:54.258Z,10.90
2022-10-17T04:49:24.187Z,10.90
2022-10-17T04:51:55.565Z,10.90
2022-10-17T04:54:38.278Z,10.90
2022-10-17T04:57:10.233Z,10.80
2022-10-17T04:59:40.229Z,10.80
2022-10-17T05:02:27.310Z,10.80
2022-10-17T05:04:56.448Z,10.80
2022-10-17T05:07:25.625Z,10.80
2022-10-17T05:10:00.999Z,10.80
2022-10-17T05:12:30.658Z,10.80
2022-10-17T05:15:00.142Z,10.80
2022-10-17T05:17:29.552Z,10.80
2022-10-17T05:19:57.671Z,10.70
2022-10-17T05:22:25.904Z,10.70
2022-10-17T05:24:54.067Z,10.80
2022-10-17T05:27:23.520Z,10.70
2022-10-17T05:29:51.602Z,10.70
2022-10-17T05:32:26.017Z,10.80
2022-10-17T05:34:54.260Z,10.80
2022-10-17T05:37:24.521Z,10.80
2022-10-17T05:39:55.645Z,10.80
2022-10-17T05:42:25.657Z,10.90
2022-10-17T05:44:53.897Z,10.90
2022-10-17T05:47:22.428Z,10.90
2022-10-17T05:49:52.454Z,10.90
2022-10-17T05:52:27.132Z,10.90
2022-10-17T05:55:14.611Z,10.90
2022-10-17T05:57:44.136Z,11.00
2022-10-17T06:00:16.569Z,11.00
2022-10-17T06:02:52.059Z,11.00
2022-10-17T06:05:22.945Z,11.00
2022-10-17T06:07:52.513Z,11.00
2022-10-17T06:10:21.708Z,11.10
2022-10-17T06:12:51.448Z,11.10
2022-10-17T06:15:20.308Z,11.20
2022-10-17T06:17:54.590Z,11.30
2022-10-17T06:20:22.680Z,11.30
2022-10-17T06:22:51.057Z,11.40
2022-10-17T06:25:29.100Z,11.40
2022-10-17T06:27:59.213Z,11.50
2022-10-17T06:30:27.886Z,11.60
2022-10-17T06:32:56.181Z,11.70
2022-10-17T06:35:24.785Z,11.80
2022-10-17T06:37:52.961Z,12.10
2022-10-17T06:40:22.787Z,12.40
2022-10-17T06:42:51.070Z,12.50
2022-10-17T06:45:41.427Z,12.70
2022-10-17T06:48:17.214Z,13.20
2022-10-17T06:50:53.305Z,13.50
2022-10-17T06:53:29.572Z,14.00
2022-10-17T06:56:27.160Z,14.40
2022-10-17T06:59:11.471Z,15.00
2022-10-17T07:01:46.250Z,15.70
2022-10-17T07:04:15.957Z,16.50
2022-10-17T07:06:44.731Z,17.30
2022-10-17T07:09:17.975Z,17.90
2022-10-17T07:11:46.209Z,18.50
2022-10-17T07:14:18.488Z,19.30
2022-10-17T07:16:49.932Z,19.90
2022-10-17T07:19:23.964Z,20.50
2022-10-17T07:21:52.603Z,21.00
2022-10-17T07:24:20.947Z,21.50
2022-10-17T07:26:57.789Z,22.10
2022-10-17T07:29:26.837Z,22.70
2022-10-17T07:32:08.441Z,23.00
2022-10-17T07:34:36.866Z,23.00
2022-10-17T07:37:09.842Z,23.30
2022-10-17T07:39:40.236Z,23.90
2022-10-17T07:42:08.835Z,24.40
2022-10-17T07:44:37.010Z,24.70
2022-10-17T07:47:07.400Z,24.70
2022-10-17T07:49:42.348Z,24.90
2022-10-17T07:52:11.653Z,25.50
2022-10-17T07:54:39.872Z,25.40
2022-10-17T07:57:08.796Z,25.00
2022-10-17T07:59:39.196Z,24.90
2022-10-17T08:02:10.433Z,25.90
2022-10-17T08:04:39.097Z,26.90
2022-10-17T08:07:19.728Z,26.80
2022-10-17T08:09:50.096Z,27.30
2022-10-17T08:12:18.922Z,28.40
2022-10-17T08:14:48.083Z,29.30
2022-10-17T08:17:17.505Z,29.00
2022-10-17T08:19:45.589Z,28.30
2022-10-17T08:22:13.739Z,28.80
2022-10-17T08:24:42.732Z,28.70
2022-10-17T08:27:13.028Z,28.90
2022-10-17T08:29:42.008Z,29.00
2022-10-17T08:32:10.462Z,30.00
2022-10-17T08:34:39.962Z,29.70
2022-10-17T08:37:08.372Z,29.10
2022-10-17T08:39:36.451Z,29.00
2022-10-17T08:42:24.120Z,29.40
2022-10-17T08:45:03.110Z,30.20
2022-10-17T08:47:40.043Z,30.50
2022-10-17T08:50:17.029Z,31.40
2022-10-17T08:52:50.514Z,32.20
2022-10-17T08:55:27.841Z,32.80
2022-10-17T08:57:56.080Z,33.50
2022-10-17T09:00:24.541Z,34.30
2022-10-17T09:03:10.948Z,34.60
2022-10-17T09:05:50.502Z,34.70
2022-10-17T09:08:41.883Z,34.00
2022-10-17T09:11:28.729Z,34.40
2022-10-17T09:14:09.360Z,34.70
2022-10-17T09:17:01.715Z,34.60
2022-10-17T09:19:35.431Z,34.80
2022-10-17T09:22:10.858Z,35.20
2022-10-17T09:24:44.445Z,35.70
2022-10-17T09:27:24.756Z,35.70
2022-10-17T09:30:13.056Z,35.80
2022-10-17T09:32:47.538Z,36.10
2022-10-17T09:35:16.699Z,36.60
2022-10-17T09:37:47.108Z,36.60
2022-10-17T09:40:25.436Z,36.60
2022-10-17T09:42:53.823Z,36.20
2022-10-17T09:45:26.796Z,35.90
2022-10-17T09:48:02.439Z,35.80
2022-10-17T09:50:34.436Z,35.70
2022-10-17T09:53:12.982Z,35.30
2022-10-17T09:55:44.593Z,35.30
2022-10-17T09:58:13.268Z,35.30
2022-10-17T10:00:43.727Z,34.90
2022-10-17T10:03:24.073Z,35.10
2022-10-17T10:06:03.076Z,35.30
2022-10-17T10:08:35.810Z,35.50
2022-10-17T10:11:07.908Z,35.60
2022-10-17T10:13:37.708Z,35.60
2022-10-17T10:16:20.511Z,35.20
2022-10-17T10:18:51.009Z,35.20
2022-10-17T10:21:21.522Z,35.60
2022-10-17T10:26:48.680Z,36.10
2022-10-17T10:29:30.729Z,36.10
2022-10-17T10:32:09.512Z,36.20
2022-10-17T10:34:42.254Z,36.20
2022-10-17T10:37:20.633Z,36.50
2022-10-17T10:39:51.310Z,36.70
2022-10-17T10:42:27.655Z,36.60
2022-10-17T10:45:02.570Z,36.60
2022-10-17T10:47:32.651Z,36.80
2022-10-17T10:50:31.803Z,37.10
2022-10-17T10:53:34.203Z,37.60
2022-10-17T10:56:10.754Z,37.50
2022-10-17T10:58:52.606Z,37.30
2022-10-17T11:01:30.466Z,37.30
2022-10-17T11:04:25.952Z,36.40
2022-10-17T11:07:01.435Z,36.80
2022-10-17T11:09:48.915Z,36.10
2022-10-17T11:12:23.164Z,35.90
2022-10-17T11:14:57.283Z,35.00
2022-10-17T11:17:36.191Z,35.10
2022-10-17T11:20:15.323Z,35.30
2022-10-17T11:22:48.112Z,35.90
2022-10-17T11:25:32.448Z,36.40
2022-10-17T11:28:04.876Z,37.30
2022-10-17T11:30:45.800Z,37.90
2022-10-17T11:33:23.310Z,37.70
2022-10-17T11:35:58.303Z,37.90
2022-10-17T11:38:43.918Z,38.40
2022-10-17T11:41:16.565Z,38.40
2022-10-17T11:43:51.467Z,37.80
2022-10-17T11:46:25.119Z,37.60
2022-10-17T11:49:06.167Z,38.30
2022-10-17T11:52:01.469Z,38.90
2022-10-17T11:54:34.985Z,38.80
2022-10-17T11:57:18.998Z,38.70
2022-10-17T12:00:05.022Z,39.00
2022-10-17T12:02:52.780Z,38.00
2022-10-17T12:05:27.370Z,38.10
2022-10-17T12:08:02.072Z,38.50
2022-10-17T12:10:47.245Z,38.60
2022-10-17T12:13:55.065Z,38.50
2022-10-17T12:16:50.730Z,38.40
2022-10-17T12:19:33.895Z,38.80
2022-10-17T12:22:07.970Z,38.70
2022-10-17T12:24:43.010Z,38.30
2022-10-17T12:27:36.880Z,38.00
2022-10-17T12:30:17.660Z,37.60
2022-10-17T12:33:07.331Z,37.90
2022-10-17T12:35:39.908Z,38.00
2022-10-17T12:38:23.939Z,38.10
2022-10-17T12:41:00.444Z,37.70
2022-10-17T12:43:58.723Z,37.40
2022-10-17T12:46:49.623Z,37.50
2022-10-17T12:49:38.605Z,37.50
2022-10-17T12:52:55.154Z,37.70
2022-10-17T12:55:26.804Z,37.80
2022-10-17T12:57:58.627Z,37.80
2022-10-17T13:00:37.041Z,37.90
2022-10-17T13:03:12.654Z,38.30
2022-10-17T13:05:47.159Z,38.60
2022-10-17T13:08:23.704Z,38.60
2022-10-17T13:10:53.838Z,38.40
2022-10-17T13:13:28.608Z,38.20
2022-10-17T13:15:56.951Z,37.80
2022-10-17T13:18:27.478Z,37.20
2022-10-17T13:20:59.041Z,36.90
2022-10-17T13:23:34.232Z,36.80
2022-10-17T13:26:13.134Z,36.60
2022-10-17T13:28:41.469Z,36.50
2022-10-17T13:31:28.619Z,36.40
2022-10-17T13:33:58.902Z,36.50
2022-10-17T13:36:28.597Z,36.10
2022-10-17T13:38:59.990Z,35.80
2022-10-17T13:41:35.902Z,35.80
2022-10-17T13:44:12.830Z,35.40
2022-10-17T13:46:41.307Z,35.20
2022-10-17T13:49:20.682Z,35.30
2022-10-17T13:51:52.732Z,35.00
2022-10-17T13:54:37.283Z,35.10
2022-10-17T13:57:07.289Z,34.90
2022-10-17T13:59:40.529Z,34.80
2022-10-17T14:02:16.563Z,34.60
2022-10-17T14:05:14.956Z,34.60
2022-10-17T14:08:05.748Z,34.40
2022-10-17T14:10:33.232Z,34.30
2022-10-17T14:13:04.193Z,34.30
2022-10-17T14:15:37.417Z,34.10
2022-10-17T14:18:09.131Z,34.10
2022-10-17T14:21:19.841Z,34.10
2022-10-17T14:23:39.491Z,33.80
2022-10-17T14:26:14.065Z,33.40
2022-10-17T14:28:44.767Z,33.20
2022-10-17T14:31:21.926Z,33.20
2022-10-17T14:33:52.453Z,33.20
2022-10-17T14:36:21.731Z,33.20
2022-10-17T14:38:52.957Z,33.00
2022-10-17T14:41:43.746Z,32.80
2022-10-17T14:44:21.463Z,32.60
2022-10-17T14:46:54.670Z,32.10
2022-10-17T14:49:33.362Z,32.10
2022-10-17T14:52:27.527Z,32.20
2022-10-17T14:54:55.766Z,32.10
2022-10-17T14:57:35.421Z,32.10
2022-10-17T15:00:03.864Z,32.00
2022-10-17T15:02:32.280Z,31.80
2022-10-17T15:05:00.566Z,31.80
2022-10-17T15:07:29.415Z,31.60
2022-10-17T15:09:57.506Z,31.20
2022-10-17T15:12:27.633Z,30.80
2022-10-17T15:14:55.882Z,30.50
2022-10-17T15:17:26.983Z,30.50
2022-10-17T15:19:55.407Z,30.20
2022-10-17T15:22:23.898Z,30.10
2022-10-17T15:24:52.060Z,29.90
2022-10-17T15:27:22.650Z,29.60
2022-10-17T15:29:53.013Z,29.10
2022-10-17T15:32:21.195Z,28.70
2022-10-17T15:34:49.315Z,28.20
2022-10-17T15:37:22.210Z,27.70
2022-10-17T15:39:54.231Z,27.30
2022-10-17T15:42:24.057Z,27.10
2022-10-17T15:44:53.556Z,26.80
2022-10-17T15:47:26.878Z,26.60
2022-10-17T15:49:56.436Z,26.30
2022-10-17T15:52:25.684Z,26.20
2022-10-17T15:54:54.349Z,26.00
2022-10-17T15:57:26.878Z,25.70
2022-10-17T15:59:58.615Z,25.40
2022-10-17T16:02:27.255Z,25.10
2022-10-17T16:04:55.330Z,24.90
2022-10-17T16:07:23.668Z,24.70
2022-10-17T16:09:51.999Z,24.50
2022-10-17T16:12:31.036Z,24.30
2022-10-17T16:15:00.822Z,23.90
2022-10-17T16:17:29.919Z,23.70
2022-10-17T16:19:58.231Z,23.50
2022-10-17T16:22:32.429Z,23.30
2022-10-17T16:25:07.879Z,23.10
2022-10-17T16:27:36.947Z,23.00
2022-10-17T16:30:09.150Z,22.80
2022-10-17T16:32:37.422Z,22.50
2022-10-17T16:35:06.648Z,22.30
2022-10-17T16:37:35.717Z,22.10
2022-10-17T16:40:04.403Z,21.90
2022-10-17T16:42:32.822Z,21.80
2022-10-17T16:45:01.165Z,21.60
2022-10-17T16:47:30.605Z,21.40
2022-10-17T16:49:58.674Z,21.20
2022-10-17T16:52:27.056Z,21.00
2022-10-17T16:54:55.312Z,20.90
2022-10-17T16:57:23.462Z,20.80
2022-10-17T16:59:52.058Z,20.70
2022-10-17T17:02:21.378Z,20.60
2022-10-17T17:04:51.094Z,20.40
2022-10-17T17:07:20.636Z,20.20
2022-10-17T17:09:49.075Z,19.90
2022-10-17T17:12:17.926Z,19.90
2022-10-17T17:14:46.289Z,19.70
2022-10-17T17:17:24.436Z,19.60
2022-10-17T17:20:04.452Z,19.50
2022-10-17T17:22:32.565Z,19.40
2022-10-17T17:25:00.681Z,19.30
2022-10-17T17:27:29.727Z,19.20
2022-10-17T17:29:58.004Z,19.10
2022-10-17T17:32:26.153Z,19.00
2022-10-17T17:34:54.423Z,18.90
2022-10-17T17:37:24.133Z,18.70
2022-10-17T17:39:52.219Z,18.60
2022-10-17T17:42:20.546Z,18.50
2022-10-17T17:44:49.634Z,18.40
2022-10-17T17:47:17.781Z,18.30
2022-10-17T17:49:45.974Z,18.20
2022-10-17T17:52:14.061Z,18.20
2022-10-17T17:54:43.651Z,18.10
2022-10-17T17:57:12.388Z,18.00
2022-10-17T17:59:41.445Z,17.90
2022-10-17T18:02:10.894Z,17.80
2022-10-17T18:04:39.155Z,17.80
2022-10-17T18:07:07.268Z,17.80
2022-10-17T18:09:35.431Z,17.70
2022-10-17T18:12:05.415Z,17.70
2022-10-17T18:14:33.517Z,17.60
2022-10-17T18:17:01.540Z,17.50
2022-10-17T18:19:29.680Z,17.50
2022-10-17T18:21:57.765Z,17.40
2022-10-17T18:24:26.154Z,17.30
2022-10-17T18:26:59.494Z,17.30
2022-10-17T18:29:29.375Z,17.20
2022-10-17T18:31:57.644Z,17.20
2022-10-17T18:34:27.132Z,17.10
2022-10-17T18:36:55.305Z,17.00
2022-10-17T18:39:23.640Z,16.90
2022-10-17T18:41:51.708Z,16.80
2022-10-17T18:44:19.796Z,16.70
2022-10-17T18:46:49.918Z,16.60
2022-10-17T18:49:23.123Z,16.60
2022-10-17T18:51:51.602Z,16.60
2022-10-17T18:54:24.300Z,16.50
2022-10-17T18:56:55.307Z,16.50
2022-10-17T18:59:23.685Z,16.40
2022-10-17T19:01:53.215Z,16.40
2022-10-17T19:04:21.359Z,16.30
2022-10-17T19:06:49.683Z,16.30
2022-10-17T19:09:18.467Z,16.30
2022-10-17T19:11:46.703Z,16.20
2022-10-17T19:14:14.791Z,16.10
2022-10-17T19:16:45.654Z,16.10
2022-10-17T19:19:18.324Z,16.10
2022-10-17T19:21:46.992Z,16.00
2022-10-17T19:24:17.919Z,16.00
2022-10-17T19:26:50.133Z,15.90
2022-10-17T19:29:19.338Z,15.90
2022-10-17T19:31:48.520Z,15.80
2022-10-17T19:34:18.532Z,15.80
2022-10-17T19:36:47.110Z,15.70
2022-10-17T19:39:17.981Z,15.70
2022-10-17T19:41:48.260Z,15.60
2022-10-17T19:44:17.307Z,15.60
2022-10-17T19:46:46.712Z,15.50
2022-10-17T19:49:15.461Z,15.50
2022-10-17T19:51:45.429Z,15.40
2022-10-17T19:54:15.006Z,15.40
2022-10-17T19:56:43.457Z,15.40
2022-10-17T19:59:15.956Z,15.30
2022-10-17T20:01:45.252Z,15.30
2022-10-17T20:04:14.192Z,15.30
2022-10-17T20:06:44.324Z,15.20
2022-10-17T20:09:16.713Z,15.20
2022-10-17T20:11:46.101Z,15.20
2022-10-17T20:14:14.266Z,15.10
2022-10-17T20:16:44.573Z,15.10
2022-10-17T20:19:14.525Z,15.10
2022-10-17T20:21:45.024Z,15.00
2022-10-17T20:24:15.624Z,15.00
2022-10-17T20:26:44.282Z,15.00
2022-10-17T20:29:16.754Z,15.00
2022-10-17T20:31:47.163Z,14.90
2022-10-17T20:34:17.521Z,14.90
2022-10-17T20:36:47.604Z,14.90
2022-10-17T20:39:18.136Z,14.90
2022-10-17T20:41:47.125Z,14.90
2022-10-17T20:44:15.388Z,14.80
2022-10-17T20:46:57.373Z,14.80
2022-10-17T20:49:29.127Z,14.70
2022-10-17T20:51:59.073Z,14.70
2022-10-17T20:54:28.230Z,14.70
2022-10-17T20:56:59.786Z,14.60
2022-10-17T20:59:30.730Z,14.60
2022-10-17T21:01:58.941Z,14.60
2022-10-17T21:04:45.521Z,14.50
2022-10-17T21:07:16.309Z,14.50
2022-10-17T21:09:46.224Z,14.50
2022-10-17T21:12:21.711Z,14.40
2022-10-17T21:14:59.357Z,14.40
2022-10-17T21:17:27.542Z,14.40
2022-10-17T21:19:56.448Z,14.40
2022-10-17T21:22:26.080Z,14.30
2022-10-17T21:24:54.192Z,14.30
2022-10-17T21:27:22.300Z,14.30
2022-10-17T21:29:50.515Z,14.20
2022-10-17T21:32:31.971Z,14.20
2022-10-17T21:35:08.255Z,14.10
2022-10-17T21:37:37.682Z,14.10
2022-10-17T21:40:07.034Z,14.10
2022-10-17T21:42:35.096Z,14.00
2022-10-17T21:45:10.506Z,14.00
2022-10-17T21:47:55.072Z,14.00
2022-10-17T21:50:32.312Z,13.90
2022-10-17T21:53:01.747Z,13.90
2022-10-17T21:55:29.880Z,13.90
2022-10-17T21:57:57.940Z,13.90
2022-10-17T22:00:26.016Z,13.80
2022-10-17T22:02:54.067Z,13.80
2022-10-17T22:05:22.211Z,13.70
2022-10-17T22:07:50.336Z,13.70
2022-10-17T22:10:19.920Z,13.70
2022-10-17T22:12:48.002Z,13.70
2022-10-17T22:15:16.225Z,13.70
2022-10-17T22:17:44.465Z,13.70
2022-10-17T22:20:12.643Z,13.60
2022-10-17T22:22:40.760Z,13.60
2022-10-17T22:25:10.066Z,13.60
2022-10-17T22:27:39.601Z,13.60
2022-10-17T22:30:09.541Z,13.60
2022-10-17T22:32:37.639Z,13.60
2022-10-17T22:35:07.035Z,13.50
2022-10-17T22:37:35.160Z,13.50
2022-10-17T22:40:03.403Z,13.50
2022-10-17T22:42:34.340Z,13.50
2022-10-17T22:45:04.437Z,13.40
2022-10-17T22:47:32.863Z,13.40
2022-10-17T22:50:01.300Z,13.30
2022-10-17T22:52:30.017Z,13.30
2022-10-17T22:54:58.266Z,13.30
2022-10-17T22:57:26.379Z,13.30
2022-10-17T22:59:54.423Z,13.30
2022-10-17T23:02:23.948Z,13.30
2022-10-17T23:04:52.019Z,13.30
2022-10-17T23:07:20.090Z,13.30
2022-10-17T23:09:48.133Z,13.30
2022-10-17T23:12:17.938Z,13.20
2022-10-17T23:14:55.086Z,13.20
2022-10-17T23:17:24.515Z,13.20
2022-10-17T23:19:55.521Z,13.20
2022-10-17T23:22:25.834Z,13.20
2022-10-17T23:24:53.908Z,13.10
2022-10-17T23:27:22.177Z,13.10
2022-10-17T23:29:50.344Z,13.10
2022-10-17T23:32:20.742Z,13.10
2022-10-17T23:34:50.280Z,13.00
2022-10-17T23:37:19.196Z,13.00
2022-10-17T23:39:47.330Z,13.00
2022-10-17T23:42:15.410Z,13.00
2022-10-17T23:44:43.459Z,13.00
2022-10-17T23:47:11.635Z,12.90
2022-10-17T23:49:41.790Z,12.90
2022-10-17T23:52:11.271Z,12.90
2022-10-17T23:54:39.339Z,12.90
2022-10-17T23:57:07.454Z,12.90
2022-10-17T23:59:35.533Z,12.80
